createdAt,value
2018-04-25T00:02:09.874Z,13.49
2018-04-25T00:04:37.449Z,13.35
2018-04-25T00:07:05.026Z,13.35
2018-04-25T00:09:32.629Z,13.41
2018-04-25T00:12:00.199Z,13.53
2018-04-25T00:14:27.792Z,13.52
2018-04-25T00:16:55.417Z,13.41
2018-04-25T00:19:23.146Z,13.47
2018-04-25T00:21:50.690Z,13.43
2018-04-25T00:24:18.636Z,13.43
2018-04-25T00:26:46.376Z,13.55
2018-04-25T00:29:13.919Z,13.49
2018-04-25T00:31:41.595Z,13.44
2018-04-25T00:34:09.145Z,13.44
2018-04-25T00:36:36.724Z,13.43
2018-04-25T00:39:04.379Z,13.57
2018-04-25T00:41:31.942Z,13.63
2018-04-25T00:43:59.530Z,13.50
2018-04-25T00:46:27.085Z,13.49
2018-04-25T00:48:54.945Z,13.56
2018-04-25T00:51:22.495Z,13.51
2018-04-25T00:53:50.044Z,13.59
2018-04-25T00:56:17.625Z,13.45
2018-04-25T00:58:45.260Z,13.45
2018-04-25T01:01:12.818Z,13.52
2018-04-25T01:03:40.365Z,13.50
2018-04-25T01:06:08.165Z,13.50
2018-04-25T01:08:35.808Z,13.57
2018-04-25T01:11:03.506Z,13.54
2018-04-25T01:13:31.159Z,13.44
2018-04-25T01:15:58.859Z,13.48
2018-04-25T01:18:26.417Z,13.52
2018-04-25T01:20:57.547Z,13.57
2018-04-25T01:23:25.148Z,13.54
2018-04-25T01:26:00.083Z,13.67
2018-04-25T01:28:31.412Z,13.51
2018-04-25T01:31:02.043Z,13.60
2018-04-25T01:33:31.476Z,13.61
2018-04-25T01:36:01.878Z,13.57
2018-04-25T01:38:32.903Z,13.67
2018-04-25T01:41:15.345Z,13.75
2018-04-25T01:43:57.833Z,13.60
2018-04-25T01:46:36.260Z,13.60
2018-04-25T01:52:17.701Z,13.54
2018-04-25T01:54:57.141Z,13.51
2018-04-25T01:57:36.485Z,13.49
2018-04-25T02:00:15.850Z,13.50
2018-04-25T02:02:42.855Z,13.48
2018-04-25T02:05:10.478Z,13.36
2018-04-25T02:07:38.174Z,13.45
2018-04-25T02:10:05.722Z,13.38
2018-04-25T02:12:33.468Z,13.47
2018-04-25T02:15:01.036Z,13.52
2018-04-25T02:17:28.572Z,13.43
2018-04-25T02:19:56.472Z,13.43
2018-04-25T02:22:24.005Z,13.38
2018-04-25T02:24:51.554Z,13.61
2018-04-25T02:27:19.131Z,13.68
2018-04-25T02:29:46.824Z,13.57
2018-04-25T02:32:14.779Z,13.58
2018-04-25T02:34:42.314Z,13.57
2018-04-25T02:37:10.074Z,13.58
2018-04-25T02:39:37.789Z,13.41
2018-04-25T02:42:05.354Z,13.46
2018-04-25T02:44:33.059Z,13.60
2018-04-25T02:47:00.604Z,13.63
2018-04-25T02:49:28.388Z,13.54
2018-04-25T02:51:55.970Z,13.32
2018-04-25T02:54:23.536Z,13.36
2018-04-25T02:56:51.854Z,13.48
2018-04-25T02:59:19.411Z,13.49
2018-04-25T03:01:46.950Z,13.45
2018-04-25T03:04:14.517Z,13.48
2018-04-25T03:06:42.083Z,13.49
2018-04-25T03:09:09.787Z,13.47
2018-04-25T03:11:37.542Z,13.53
2018-04-25T03:14:05.240Z,13.56
2018-04-25T03:16:32.867Z,13.51
2018-04-25T03:19:00.700Z,13.67
2018-04-25T03:21:28.477Z,13.59
2018-04-25T03:23:56.046Z,13.63
2018-04-25T03:26:23.600Z,13.56
2018-04-25T03:28:51.353Z,13.53
2018-04-25T03:31:19.178Z,13.51
2018-04-25T03:33:46.743Z,13.60
2018-04-25T03:36:14.304Z,13.63
2018-04-25T03:38:41.833Z,13.62
2018-04-25T03:41:09.420Z,13.59
2018-04-25T03:43:36.994Z,13.52
2018-04-25T03:46:04.947Z,13.58
2018-04-25T03:48:32.492Z,13.55
2018-04-25T03:51:00.031Z,13.66
2018-04-25T03:53:27.596Z,13.62
2018-04-25T03:55:55.130Z,13.57
2018-04-25T03:58:22.666Z,13.52
2018-04-25T04:00:50.367Z,13.55
2018-04-25T04:03:17.893Z,13.59
2018-04-25T04:05:45.425Z,13.54
2018-04-25T04:08:13.085Z,13.43
2018-04-25T04:10:40.683Z,13.45
2018-04-25T04:13:08.220Z,13.33
2018-04-25T04:15:39.589Z,13.00
2018-04-25T04:18:08.631Z,12.48
2018-04-25T04:20:37.647Z,12.16
2018-04-25T04:23:05.198Z,12.11
2018-04-25T04:25:32.900Z,12.05
2018-04-25T04:28:00.559Z,11.98
2018-04-25T04:30:28.238Z,11.92
2018-04-25T04:32:55.935Z,11.93
2018-04-25T04:35:23.692Z,11.86
2018-04-25T04:37:51.278Z,11.78
2018-04-25T04:40:19.348Z,11.76
2018-04-25T04:42:46.885Z,11.92
2018-04-25T04:45:14.434Z,11.73
2018-04-25T04:47:42.282Z,11.76
2018-04-25T04:50:11.206Z,11.70
2018-04-25T04:52:38.751Z,11.64
2018-04-25T04:55:06.313Z,11.54
2018-04-25T04:57:33.899Z,11.56
2018-04-25T05:00:01.441Z,11.50
2018-04-25T05:02:29.373Z,11.50
2018-04-25T05:04:56.931Z,11.41
2018-04-25T05:07:24.493Z,11.50
2018-04-25T05:09:52.486Z,11.47
2018-04-25T05:12:20.167Z,11.41
2018-04-25T05:14:47.945Z,11.41
2018-04-25T05:17:15.516Z,11.48
2018-04-25T05:19:43.067Z,11.51
2018-04-25T05:22:10.999Z,11.57
2018-04-25T05:24:38.739Z,11.57
2018-04-25T05:27:06.308Z,11.57
2018-04-25T05:29:33.900Z,11.54
2018-04-25T05:32:01.515Z,11.58
2018-04-25T05:34:29.145Z,11.61
2018-04-25T05:36:56.930Z,11.48
2018-04-25T05:39:24.464Z,11.47
2018-04-25T05:41:52.503Z,11.53
2018-04-25T05:44:20.058Z,11.47
2018-04-25T05:46:47.624Z,11.57
2018-04-25T05:49:15.630Z,11.40
2018-04-25T05:51:43.222Z,11.46
2018-04-25T05:54:10.937Z,11.37
2018-04-25T05:56:38.556Z,11.59
2018-04-25T05:59:06.093Z,11.70
2018-04-25T06:01:33.652Z,11.37
2018-04-25T06:04:01.230Z,11.47
2018-04-25T06:06:28.817Z,11.53
2018-04-25T06:08:56.912Z,11.47
2018-04-25T06:11:24.528Z,11.37
2018-04-25T06:13:52.081Z,11.39
2018-04-25T06:16:20.167Z,11.38
2018-04-25T06:18:47.705Z,11.48
2018-04-25T06:21:15.255Z,11.51
2018-04-25T06:23:43.282Z,11.44
2018-04-25T06:26:10.847Z,11.29
2018-04-25T06:28:38.624Z,11.38
2018-04-25T06:31:06.637Z,11.36
2018-04-25T06:33:34.181Z,11.28
2018-04-25T06:36:01.736Z,11.25
2018-04-25T06:38:29.322Z,11.17
2018-04-25T06:40:56.876Z,11.08
2018-04-25T06:43:24.461Z,10.95
2018-04-25T06:45:52.148Z,10.77
2018-04-25T06:48:20.339Z,10.78
2018-04-25T06:50:47.873Z,10.80
2018-04-25T06:53:15.412Z,10.79
2018-04-25T06:55:42.973Z,10.97
2018-04-25T06:58:10.501Z,11.00
2018-04-25T07:00:38.093Z,10.81
2018-04-25T07:03:05.648Z,10.90
2018-04-25T07:05:33.202Z,11.13
2018-04-25T07:08:00.831Z,11.19
2018-04-25T07:10:28.544Z,11.00
2018-04-25T07:12:56.101Z,11.36
2018-04-25T07:15:23.646Z,11.04
2018-04-25T07:17:51.755Z,11.19
2018-04-25T07:20:19.403Z,10.86
2018-04-25T07:22:46.941Z,11.01
2018-04-25T07:25:14.546Z,10.82
2018-04-25T07:27:42.270Z,10.65
2018-04-25T07:30:09.995Z,11.01
2018-04-25T07:32:37.562Z,10.67
2018-04-25T07:35:05.215Z,10.97
2018-04-25T07:37:32.779Z,11.00
2018-04-25T07:40:00.327Z,10.84
2018-04-25T07:42:27.891Z,10.85
2018-04-25T07:44:55.647Z,10.93
2018-04-25T07:47:23.206Z,10.63
2018-04-25T07:49:50.742Z,11.13
2018-04-25T07:52:18.351Z,11.15
2018-04-25T07:54:45.920Z,11.21
2018-04-25T07:57:13.458Z,11.03
2018-04-25T07:59:41.005Z,10.75
2018-04-25T08:02:08.619Z,11.03
2018-04-25T08:04:36.149Z,11.33
2018-04-25T08:07:03.782Z,11.55
2018-04-25T08:09:31.327Z,11.07
2018-04-25T08:11:58.864Z,10.76
2018-04-25T08:14:38.538Z,10.90
2018-04-25T08:17:18.031Z,11.18
2018-04-25T08:19:57.473Z,10.96
2018-04-25T08:22:25.002Z,11.02
2018-04-25T08:24:53.065Z,11.07
2018-04-25T08:27:20.604Z,11.37
2018-04-25T08:29:48.315Z,11.21
2018-04-25T08:32:15.923Z,10.89
2018-04-25T08:34:43.453Z,10.97
2018-04-25T08:37:11.250Z,10.81
2018-04-25T08:39:38.948Z,10.88
2018-04-25T08:42:06.485Z,11.30
2018-04-25T08:44:34.244Z,11.15
2018-04-25T08:47:01.980Z,11.25
2018-04-25T08:49:29.729Z,11.07
2018-04-25T08:51:57.322Z,11.15
2018-04-25T08:54:25.286Z,11.24
2018-04-25T08:56:52.812Z,11.12
2018-04-25T08:59:20.471Z,10.90
2018-04-25T09:01:48.205Z,10.96
2018-04-25T09:04:16.050Z,11.07
2018-04-25T09:06:43.757Z,11.24
2018-04-25T09:09:11.330Z,11.03
2018-04-25T09:11:38.869Z,11.51
2018-04-25T09:14:06.992Z,11.50
2018-04-25T09:16:34.533Z,11.42
2018-04-25T09:19:02.235Z,11.01
2018-04-25T09:21:29.807Z,10.92
2018-04-25T09:23:57.382Z,10.83
2018-04-25T09:26:25.166Z,10.64
2018-04-25T09:28:52.731Z,11.07
2018-04-25T09:31:20.368Z,10.91
2018-04-25T09:33:47.914Z,10.99
2018-04-25T09:36:15.468Z,10.88
2018-04-25T09:38:43.239Z,10.75
2018-04-25T09:41:10.769Z,10.70
2018-04-25T09:43:38.387Z,10.61
2018-04-25T09:46:06.125Z,10.71
2018-04-25T09:48:33.667Z,11.11
2018-04-25T09:51:01.294Z,11.52
2018-04-25T09:53:29.087Z,11.46
2018-04-25T09:55:56.659Z,11.47
2018-04-25T09:58:24.196Z,11.53
2018-04-25T10:00:57.973Z,12.11
2018-04-25T10:03:25.527Z,11.97
2018-04-25T10:05:53.303Z,11.96
2018-04-25T10:08:20.988Z,11.92
2018-04-25T10:10:48.599Z,11.91
2018-04-25T10:13:16.222Z,12.03
2018-04-25T10:15:43.784Z,12.50
2018-04-25T10:18:11.336Z,12.30
2018-04-25T10:20:39.255Z,12.63
2018-04-25T10:23:06.817Z,12.13
2018-04-25T10:25:34.384Z,12.51
2018-04-25T10:28:01.965Z,12.35
2018-04-25T10:30:29.577Z,12.61
2018-04-25T10:32:57.106Z,12.35
2018-04-25T10:35:24.895Z,11.67
2018-04-25T10:37:52.470Z,12.20
2018-04-25T10:40:20.016Z,11.45
2018-04-25T10:42:47.828Z,11.25
2018-04-25T10:45:15.491Z,11.67
2018-04-25T10:47:43.061Z,11.06
2018-04-25T10:50:10.622Z,11.06
2018-04-25T10:52:38.317Z,10.84
2018-04-25T10:55:05.880Z,10.67
2018-04-25T10:57:33.418Z,10.90
2018-04-25T11:00:01.010Z,11.19
2018-04-25T11:02:28.604Z,11.64
2018-04-25T11:04:56.168Z,12.76
2018-04-25T11:07:23.896Z,13.20
2018-04-25T11:09:51.775Z,13.12
2018-04-25T11:12:19.306Z,12.03
2018-04-25T11:14:46.853Z,12.05
2018-04-25T11:17:14.558Z,11.86
2018-04-25T11:19:42.208Z,11.77
2018-04-25T11:22:09.888Z,11.44
2018-04-25T11:24:37.436Z,11.35
2018-04-25T11:27:04.981Z,11.47
2018-04-25T11:29:32.538Z,11.33
2018-04-25T11:32:00.137Z,11.27
2018-04-25T11:34:27.657Z,11.17
2018-04-25T11:36:55.196Z,11.03
2018-04-25T11:39:22.942Z,11.15
2018-04-25T11:41:50.478Z,11.08
2018-04-25T11:44:18.024Z,11.21
2018-04-25T11:46:45.585Z,11.48
2018-04-25T11:49:13.529Z,11.73
2018-04-25T11:51:41.061Z,12.03
2018-04-25T11:54:08.635Z,12.60
2018-04-25T11:56:36.238Z,12.04
2018-04-25T11:59:03.813Z,12.13
2018-04-25T12:01:31.502Z,12.37
2018-04-25T12:03:59.057Z,11.97
2018-04-25T12:06:26.641Z,11.99
2018-04-25T12:08:54.294Z,12.67
2018-04-25T12:11:21.833Z,13.21
2018-04-25T12:13:49.419Z,13.34
2018-04-25T12:16:16.983Z,13.00
2018-04-25T12:18:44.572Z,12.70
2018-04-25T12:21:12.114Z,12.16
2018-04-25T12:23:39.678Z,12.30
2018-04-25T12:26:07.208Z,12.25
2018-04-25T12:28:35.417Z,12.79
2018-04-25T12:31:02.959Z,13.79
2018-04-25T12:33:30.489Z,13.75
2018-04-25T12:35:58.206Z,14.16
2018-04-25T12:38:25.750Z,13.25
2018-04-25T12:40:53.290Z,12.94
2018-04-25T12:43:20.900Z,12.91
2018-04-25T12:45:48.461Z,12.56
2018-04-25T12:48:16.215Z,12.66
2018-04-25T12:50:43.784Z,12.38
2018-04-25T12:53:11.394Z,12.22
2018-04-25T12:55:38.946Z,12.15
2018-04-25T12:58:06.495Z,11.98
2018-04-25T13:00:34.193Z,12.35
2018-04-25T13:03:01.757Z,11.95
2018-04-25T13:05:29.301Z,12.04
2018-04-25T13:07:56.863Z,12.05
2018-04-25T13:10:24.578Z,11.97
2018-04-25T13:12:52.147Z,11.87
2018-04-25T13:15:19.695Z,11.97
2018-04-25T13:17:47.252Z,11.96
2018-04-25T13:20:15.069Z,11.99
2018-04-25T13:22:42.646Z,12.26
2018-04-25T13:25:10.357Z,12.12
2018-04-25T13:27:37.906Z,12.23
2018-04-25T13:30:05.622Z,12.64
2018-04-25T13:32:33.355Z,12.67
2018-04-25T13:35:00.899Z,12.53
2018-04-25T13:37:28.429Z,12.33
2018-04-25T13:39:55.982Z,12.17
2018-04-25T13:42:23.537Z,11.85
2018-04-25T13:44:51.103Z,12.26
2018-04-25T13:47:19.110Z,12.02
2018-04-25T13:49:46.872Z,12.24
2018-04-25T13:52:14.411Z,12.58
2018-04-25T13:54:42.229Z,13.23
2018-04-25T13:57:09.779Z,12.94
2018-04-25T13:59:37.519Z,13.27
2018-04-25T14:02:05.098Z,13.75
2018-04-25T14:04:32.633Z,14.17
2018-04-25T14:07:00.497Z,13.11
2018-04-25T14:09:28.277Z,13.70
2018-04-25T14:11:55.809Z,13.55
2018-04-25T14:14:23.374Z,13.17
2018-04-25T14:16:50.995Z,14.42
2018-04-25T14:19:18.620Z,14.12
2018-04-25T14:21:46.163Z,14.20
2018-04-25T14:24:13.922Z,13.42
2018-04-25T14:26:41.698Z,13.27
2018-04-25T14:29:09.424Z,13.04
2018-04-25T14:31:37.080Z,12.75
2018-04-25T14:34:04.805Z,12.28
2018-04-25T14:36:32.610Z,12.45
2018-04-25T14:39:00.154Z,11.38
2018-04-25T14:41:27.882Z,10.46
2018-04-25T14:43:55.634Z,10.31
2018-04-25T14:46:23.173Z,9.84
2018-04-25T14:48:50.986Z,9.95
2018-04-25T14:51:18.532Z,9.74
2018-04-25T14:53:46.116Z,10.35
2018-04-25T14:56:13.661Z,10.65
2018-04-25T14:58:41.286Z,11.03
2018-04-25T15:01:08.851Z,10.63
2018-04-25T15:03:36.393Z,10.57
2018-04-25T15:06:05.026Z,11.11
2018-04-25T15:08:32.650Z,11.50
2018-04-25T15:11:00.477Z,11.69
2018-04-25T15:13:28.026Z,12.00
2018-04-25T15:15:55.613Z,11.87
2018-04-25T15:18:23.144Z,12.03
2018-04-25T15:20:51.098Z,11.73
2018-04-25T15:23:18.634Z,12.01
2018-04-25T15:25:46.183Z,11.59
2018-04-25T15:28:14.127Z,11.28
2018-04-25T15:30:41.837Z,11.56
2018-04-25T15:33:09.387Z,11.15
2018-04-25T15:35:36.961Z,11.55
2018-04-25T15:38:04.541Z,11.83
2018-04-25T15:40:32.078Z,12.22
2018-04-25T15:42:59.608Z,11.93
2018-04-25T15:45:27.388Z,11.97
2018-04-25T15:47:55.199Z,12.25
2018-04-25T15:50:22.919Z,12.14
2018-04-25T15:52:51.063Z,12.61
2018-04-25T15:55:18.608Z,12.65
2018-04-25T15:57:46.154Z,12.83
2018-04-25T16:00:13.880Z,13.00
2018-04-25T16:02:41.423Z,13.22
2018-04-25T16:05:09.141Z,13.13
2018-04-25T16:07:36.809Z,12.78
2018-04-25T16:10:04.555Z,12.25
2018-04-25T16:12:32.529Z,12.17
2018-04-25T16:15:00.071Z,12.12
2018-04-25T16:17:27.621Z,12.62
2018-04-25T16:19:55.192Z,12.63
2018-04-25T16:22:22.913Z,12.92
2018-04-25T16:24:50.643Z,12.96
2018-04-25T16:27:18.237Z,12.83
2018-04-25T16:29:45.939Z,12.63
2018-04-25T16:32:13.542Z,13.07
2018-04-25T16:34:41.088Z,13.25
2018-04-25T16:37:08.627Z,13.20
2018-04-25T16:39:36.244Z,13.20
2018-04-25T16:42:03.785Z,13.03
2018-04-25T16:44:31.498Z,13.02
2018-04-25T16:46:59.230Z,13.22
2018-04-25T16:49:26.996Z,13.34
2018-04-25T16:51:54.566Z,13.11
2018-04-25T16:54:22.138Z,12.98
2018-04-25T16:56:49.689Z,13.14
2018-04-25T16:59:17.279Z,12.78
2018-04-25T17:01:44.862Z,12.74
2018-04-25T17:04:12.424Z,12.76
2018-04-25T17:06:40.207Z,12.68
2018-04-25T17:09:07.758Z,12.88
2018-04-25T17:11:35.315Z,12.57
2018-04-25T17:14:02.883Z,12.60
2018-04-25T17:16:30.433Z,12.34
2018-04-25T17:18:57.975Z,12.36
2018-04-25T17:21:25.733Z,12.14
2018-04-25T17:23:53.482Z,12.25
2018-04-25T17:26:21.013Z,11.88
2018-04-25T17:28:48.617Z,12.04
2018-04-25T17:31:16.418Z,11.96
2018-04-25T17:33:44.148Z,11.83
2018-04-25T17:36:11.700Z,11.78
2018-04-25T17:38:39.247Z,11.86
2018-04-25T17:41:06.837Z,11.91
2018-04-25T17:43:34.814Z,11.78
2018-04-25T17:46:02.340Z,11.60
2018-04-25T17:48:29.869Z,11.64
2018-04-25T17:50:57.475Z,11.65
2018-04-25T17:53:25.026Z,11.64
2018-04-25T17:55:52.901Z,11.66
2018-04-25T17:58:20.435Z,11.63
2018-04-25T18:00:47.986Z,11.85
2018-04-25T18:03:15.633Z,11.77
2018-04-25T18:05:43.125Z,11.85
2018-04-25T18:08:10.869Z,11.86
2018-04-25T18:10:38.647Z,11.76
2018-04-25T18:13:06.320Z,11.76
2018-04-25T18:15:33.863Z,11.54
2018-04-25T18:18:01.426Z,11.67
2018-04-25T18:20:28.966Z,12.01
2018-04-25T18:22:56.521Z,12.01
2018-04-25T18:25:24.115Z,12.03
2018-04-25T18:27:51.826Z,11.53
2018-04-25T18:30:19.379Z,11.50
2018-04-25T18:32:48.913Z,11.15
2018-04-25T18:35:16.739Z,11.10
2018-04-25T18:37:44.315Z,10.95
2018-04-25T18:40:12.314Z,10.93
2018-04-25T18:42:39.881Z,10.77
2018-04-25T18:45:07.462Z,10.58
2018-04-25T18:47:35.440Z,10.50
2018-04-25T18:50:02.998Z,10.41
2018-04-25T18:52:30.548Z,10.37
2018-04-25T18:54:58.121Z,10.34
2018-04-25T18:57:25.860Z,10.25
2018-04-25T18:59:53.394Z,10.12
2018-04-25T19:02:21.128Z,10.09
2018-04-25T19:04:48.950Z,10.05
2018-04-25T19:07:16.829Z,9.91
2018-04-25T19:09:44.409Z,9.76
2018-04-25T19:12:11.946Z,9.62
2018-04-25T19:14:39.835Z,9.55
2018-04-25T19:17:07.631Z,9.28
2018-04-25T19:19:35.406Z,9.21
2018-04-25T19:22:02.976Z,8.93
2018-04-25T19:24:30.701Z,8.73
2018-04-25T19:26:58.238Z,8.63
2018-04-25T19:29:25.827Z,8.56
2018-04-25T19:31:53.810Z,8.50
2018-04-25T19:34:21.350Z,8.42
2018-04-25T19:36:49.140Z,8.38
2018-04-25T19:39:16.726Z,8.28
2018-04-25T19:41:44.262Z,8.20
2018-04-25T19:44:11.851Z,8.16
2018-04-25T19:46:39.886Z,8.12
2018-04-25T19:49:07.409Z,8.03
2018-04-25T19:51:35.087Z,7.96
2018-04-25T19:54:02.685Z,7.93
2018-04-25T19:56:31.150Z,7.82
2018-04-25T19:58:58.703Z,7.73
2018-04-25T20:01:26.734Z,7.67
2018-04-25T20:03:54.330Z,7.61
2018-04-25T20:06:21.891Z,7.56
2018-04-25T20:08:49.639Z,7.51
2018-04-25T20:11:17.317Z,7.48
2018-04-25T20:13:45.169Z,7.47
2018-04-25T20:16:12.657Z,7.42
2018-04-25T20:18:40.193Z,7.40
2018-04-25T20:21:07.903Z,7.36
2018-04-25T20:23:35.451Z,7.30
2018-04-25T20:26:03.261Z,7.27
2018-04-25T20:28:31.047Z,7.23
2018-04-25T20:30:58.819Z,7.24
2018-04-25T20:33:26.357Z,7.33
2018-04-25T20:35:53.951Z,7.18
2018-04-25T20:38:21.514Z,7.22
2018-04-25T20:40:49.045Z,7.26
2018-04-25T20:43:17.002Z,7.30
2018-04-25T20:45:44.536Z,7.23
2018-04-25T20:48:12.068Z,7.16
2018-04-25T20:50:39.651Z,7.15
2018-04-25T20:53:07.218Z,7.05
2018-04-25T20:55:34.772Z,6.99
2018-04-25T20:58:02.422Z,7.02
2018-04-25T21:00:29.954Z,6.93
2018-04-25T21:02:57.693Z,6.85
2018-04-25T21:05:25.224Z,6.83
2018-04-25T21:07:52.761Z,6.82
2018-04-25T21:10:20.600Z,6.78
2018-04-25T21:12:48.168Z,7.27
2018-04-25T21:15:15.841Z,7.27
2018-04-25T21:17:43.403Z,7.57
2018-04-25T21:20:10.954Z,7.71
2018-04-25T21:22:38.515Z,7.80
2018-04-25T21:25:06.055Z,7.83
2018-04-25T21:27:33.843Z,7.77
2018-04-25T21:30:01.412Z,7.80
2018-04-25T21:32:28.958Z,7.79
2018-04-25T21:34:56.514Z,7.93
2018-04-25T21:37:24.064Z,8.09
2018-04-25T21:39:51.653Z,8.15
2018-04-25T21:42:19.182Z,8.16
2018-04-25T21:44:46.741Z,8.33
2018-04-25T21:47:14.269Z,8.25
2018-04-25T21:49:41.951Z,8.34
2018-04-25T21:52:09.656Z,8.33
2018-04-25T21:54:37.537Z,8.29
2018-04-25T21:57:05.311Z,8.41
2018-04-25T21:59:32.865Z,8.32
2018-04-25T22:02:00.439Z,8.29
2018-04-25T22:04:28.252Z,8.24
2018-04-25T22:06:55.828Z,8.28
2018-04-25T22:09:23.397Z,8.40
2018-04-25T22:11:50.955Z,8.40
2018-04-25T22:14:18.656Z,8.52
2018-04-25T22:16:46.203Z,8.46
2018-04-25T22:19:13.741Z,8.46
2018-04-25T22:21:41.501Z,8.44
2018-04-25T22:24:09.052Z,8.49
2018-04-25T22:26:36.660Z,8.56
2018-04-25T22:29:04.210Z,8.57
2018-04-25T22:31:31.807Z,8.67
2018-04-25T22:33:59.399Z,8.70
2018-04-25T22:36:26.995Z,8.65
2018-04-25T22:38:54.522Z,8.69
2018-04-25T22:41:22.415Z,8.72
2018-04-25T22:43:50.093Z,8.83
2018-04-25T22:46:17.655Z,8.81
2018-04-25T22:48:45.596Z,8.72
2018-04-25T22:51:13.299Z,8.78
2018-04-25T22:53:40.992Z,8.81
2018-04-25T22:56:08.799Z,8.88
2018-04-25T22:58:36.329Z,8.80
2018-04-25T23:01:03.871Z,8.84
2018-04-25T23:03:31.421Z,8.88
2018-04-25T23:05:59.202Z,9.05
2018-04-25T23:08:26.749Z,8.80
2018-04-25T23:10:54.478Z,8.69
2018-04-25T23:18:11.744Z,8.68
2018-04-25T23:20:39.272Z,8.57
2018-04-25T23:23:06.835Z,8.55
2018-04-25T23:25:34.407Z,8.38
2018-04-25T23:28:01.945Z,8.47
2018-04-25T23:30:29.501Z,8.56
2018-04-25T23:32:57.182Z,8.63
2018-04-25T23:35:24.965Z,8.69
2018-04-25T23:37:52.501Z,8.67
2018-04-25T23:40:20.066Z,8.62
2018-04-25T23:42:47.651Z,8.73
2018-04-25T23:45:15.208Z,8.76
2018-04-25T23:47:42.764Z,8.79
2018-04-25T23:50:10.531Z,8.93
2018-04-25T23:52:38.079Z,9.22
2018-04-25T23:55:05.799Z,9.01
2018-04-25T23:57:33.383Z,8.97
